createdAt,value
2023-04-20T00:00:50.799Z,53.77
2023-04-20T00:01:50.788Z,54.69
2023-04-20T00:02:50.840Z,53.56
2023-04-20T00:03:50.798Z,54.92
2023-04-20T00:04:50.757Z,54.59
2023-04-20T00:05:50.728Z,54.61
2023-04-20T00:06:50.700Z,54.59
2023-04-20T00:07:50.689Z,54.20
2023-04-20T00:08:50.678Z,54.51
2023-04-20T00:09:55.701Z,54.41
2023-04-20T00:10:50.674Z,54.17
2023-04-20T00:11:50.686Z,54.20
2023-04-20T00:12:50.640Z,54.51
2023-04-20T00:13:50.626Z,54.41
2023-04-20T00:14:50.611Z,54.92
2023-04-20T00:15:50.621Z,55.23
2023-04-20T00:16:50.647Z,55.43
2023-04-20T00:17:50.663Z,55.43
2023-04-20T00:18:50.576Z,55.85
2023-04-20T00:19:50.558Z,55.64
2023-04-20T00:20:55.574Z,56.15
2023-04-20T00:21:50.541Z,55.85
2023-04-20T00:22:50.520Z,55.64
2023-04-20T00:23:50.515Z,55.54
2023-04-20T00:24:50.496Z,55.54
2023-04-20T00:25:50.496Z,55.66
2023-04-20T00:26:50.481Z,55.54
2023-04-20T00:27:50.486Z,55.87
2023-04-20T00:28:50.451Z,55.98
2023-04-20T00:29:50.446Z,55.98
2023-04-20T00:30:50.488Z,56.49
2023-04-20T00:31:55.455Z,55.36
2023-04-20T00:32:50.429Z,55.57
2023-04-20T00:33:50.431Z,55.66
2023-04-20T00:34:50.380Z,55.57
2023-04-20T00:35:50.375Z,56.80
2023-04-20T00:36:50.362Z,56.49
2023-04-20T00:37:50.352Z,56.49
2023-04-20T00:38:50.335Z,56.38
2023-04-20T00:39:50.336Z,56.38
2023-04-20T00:40:50.332Z,56.31
2023-04-20T00:41:50.299Z,56.59
2023-04-20T00:42:55.318Z,56.80
2023-04-20T00:43:50.282Z,57.34
2023-04-20T00:44:50.264Z,56.80
2023-04-20T00:45:50.285Z,56.70
2023-04-20T00:46:50.243Z,57.34
2023-04-20T00:47:50.344Z,57.52
2023-04-20T00:48:50.222Z,56.93
2023-04-20T00:49:50.209Z,56.82
2023-04-20T00:50:50.204Z,57.14
2023-04-20T00:51:50.189Z,57.86
2023-04-20T00:52:50.172Z,57.65
2023-04-20T00:53:55.196Z,57.75
2023-04-20T00:54:50.149Z,57.96
2023-04-20T00:55:50.157Z,57.96
2023-04-20T00:56:50.130Z,57.44
2023-04-20T00:57:50.124Z,56.82
2023-04-20T00:58:50.105Z,56.62
2023-04-20T00:59:50.092Z,57.44
2023-04-20T01:00:50.078Z,56.93
2023-04-20T01:01:50.139Z,57.37
2023-04-20T01:02:50.153Z,57.06
2023-04-20T01:03:50.182Z,57.16
2023-04-20T01:04:55.060Z,57.26
2023-04-20T01:05:50.034Z,57.68
2023-04-20T01:06:50.031Z,57.16
2023-04-20T01:07:50.016Z,57.98
2023-04-20T01:08:50.033Z,57.68
2023-04-20T01:09:49.994Z,57.47
2023-04-20T01:10:49.968Z,57.78
2023-04-20T01:11:49.978Z,57.68
2023-04-20T01:12:49.948Z,57.68
2023-04-20T01:13:49.937Z,58.01
2023-04-20T01:14:49.918Z,57.39
2023-04-20T01:15:55.010Z,58.19
2023-04-20T01:16:49.912Z,57.78
2023-04-20T01:17:49.912Z,57.60
2023-04-20T01:18:49.882Z,57.37
2023-04-20T01:19:49.889Z,57.81
2023-04-20T01:20:49.857Z,57.60
2023-04-20T01:21:49.859Z,57.60
2023-04-20T01:22:49.828Z,57.18
2023-04-20T01:23:49.840Z,57.81
2023-04-20T01:24:49.826Z,57.60
2023-04-20T01:25:49.799Z,57.81
2023-04-20T01:26:54.840Z,57.93
2023-04-20T01:27:49.783Z,57.62
2023-04-20T01:28:49.769Z,57.83
2023-04-20T01:29:49.753Z,57.83
2023-04-20T01:30:49.740Z,57.21
2023-04-20T01:31:49.787Z,57.21
2023-04-20T01:32:49.864Z,57.70
2023-04-20T01:33:49.727Z,57.73
2023-04-20T01:34:49.692Z,58.17
2023-04-20T01:35:49.710Z,58.14
2023-04-20T01:36:49.688Z,58.04
2023-04-20T01:37:54.694Z,58.69
2023-04-20T01:38:49.652Z,58.76
2023-04-20T01:39:49.696Z,58.48
2023-04-20T01:40:49.629Z,58.14
2023-04-20T01:41:49.627Z,58.45
2023-04-20T01:42:49.612Z,58.14
2023-04-20T01:43:49.603Z,58.35
2023-04-20T01:44:49.584Z,58.55
2023-04-20T01:45:49.586Z,58.65
2023-04-20T01:46:49.605Z,58.97
2023-04-20T01:47:49.602Z,58.97
2023-04-20T01:48:54.563Z,58.79
2023-04-20T01:49:49.533Z,59.61
2023-04-20T01:50:49.519Z,59.41
2023-04-20T01:51:49.553Z,60.33
2023-04-20T01:52:49.498Z,60.02
2023-04-20T01:53:49.488Z,60.02
2023-04-20T01:54:49.475Z,60.23
2023-04-20T01:55:49.468Z,59.92
2023-04-20T01:56:49.462Z,60.23
2023-04-20T01:57:49.449Z,60.33
2023-04-20T01:58:49.432Z,60.44
2023-04-20T01:59:54.439Z,60.44
2023-04-20T02:00:49.428Z,60.64
2023-04-20T02:01:49.428Z,60.44
2023-04-20T02:02:49.623Z,60.77
2023-04-20T02:03:49.766Z,60.13
2023-04-20T02:04:49.366Z,60.44
2023-04-20T02:05:49.357Z,60.44
2023-04-20T02:06:49.349Z,60.16
2023-04-20T02:07:49.367Z,60.13
2023-04-20T02:08:49.321Z,60.88
2023-04-20T02:09:49.316Z,60.16
2023-04-20T02:10:54.323Z,60.36
2023-04-20T02:11:49.301Z,60.57
2023-04-20T02:12:49.267Z,60.16
2023-04-20T02:13:49.263Z,60.47
2023-04-20T02:14:49.253Z,60.47
2023-04-20T02:15:49.252Z,61.08
2023-04-20T02:16:49.298Z,61.29
2023-04-20T02:17:49.231Z,60.88
2023-04-20T02:18:49.204Z,61.08
2023-04-20T02:19:49.200Z,61.29
2023-04-20T02:20:49.178Z,61.40
2023-04-20T02:21:54.215Z,61.29
2023-04-20T02:22:49.160Z,62.12
2023-04-20T02:23:49.172Z,61.60
2023-04-20T02:24:49.140Z,61.60
2023-04-20T02:25:49.139Z,61.60
2023-04-20T02:26:49.126Z,61.40
2023-04-20T02:27:49.106Z,61.50
2023-04-20T02:28:49.090Z,61.40
2023-04-20T02:29:49.073Z,61.60
2023-04-20T02:30:49.065Z,61.70
2023-04-20T02:31:49.180Z,61.50
2023-04-20T02:32:54.100Z,61.29
2023-04-20T02:33:49.038Z,61.78
2023-04-20T02:34:49.027Z,61.57
2023-04-20T02:35:49.021Z,61.60
2023-04-20T02:36:49.019Z,61.60
2023-04-20T02:37:49.000Z,61.80
2023-04-20T02:38:48.982Z,62.01
2023-04-20T02:39:48.991Z,61.80
2023-04-20T02:40:48.957Z,61.50
2023-04-20T02:41:48.963Z,61.80
2023-04-20T02:42:48.931Z,62.01
2023-04-20T02:43:53.959Z,61.80
2023-04-20T02:44:48.910Z,61.78
2023-04-20T02:45:48.925Z,62.01
2023-04-20T02:46:49.050Z,62.01
2023-04-20T02:47:48.939Z,61.78
2023-04-20T02:48:48.889Z,61.91
2023-04-20T02:49:48.855Z,61.80
2023-04-20T02:50:48.850Z,61.70
2023-04-20T02:51:48.851Z,61.91
2023-04-20T02:52:48.823Z,62.12
2023-04-20T02:53:48.816Z,62.12
2023-04-20T02:54:53.840Z,61.91
2023-04-20T02:55:48.786Z,62.22
2023-04-20T02:56:48.810Z,62.12
2023-04-20T02:57:48.781Z,62.32
2023-04-20T02:58:48.766Z,61.91
2023-04-20T02:59:48.745Z,62.22
2023-04-20T03:00:48.732Z,62.22
2023-04-20T03:01:48.765Z,62.01
2023-04-20T03:02:48.904Z,62.22
2023-04-20T03:03:48.847Z,62.22
2023-04-20T03:04:48.709Z,61.91
2023-04-20T03:05:54.440Z,62.12
2023-04-20T03:06:48.683Z,62.22
2023-04-20T03:07:48.656Z,62.53
2023-04-20T03:08:48.642Z,62.22
2023-04-20T03:09:48.641Z,62.43
2023-04-20T03:10:48.644Z,61.91
2023-04-20T03:11:48.619Z,62.22
2023-04-20T03:12:48.598Z,61.91
2023-04-20T03:13:48.584Z,62.01
2023-04-20T03:14:48.580Z,62.12
2023-04-20T03:15:48.575Z,61.88
2023-04-20T03:16:53.707Z,62.12
2023-04-20T03:17:48.572Z,61.91
2023-04-20T03:18:48.530Z,62.22
2023-04-20T03:19:48.516Z,62.53
2023-04-20T03:20:48.512Z,62.19
2023-04-20T03:21:48.513Z,62.08
2023-04-20T03:22:48.485Z,62.19
2023-04-20T03:23:48.471Z,61.98
2023-04-20T03:24:48.460Z,62.08
2023-04-20T03:25:48.446Z,61.88
2023-04-20T03:26:48.519Z,62.50
2023-04-20T03:27:53.460Z,61.91
2023-04-20T03:28:48.414Z,62.22
2023-04-20T03:29:48.398Z,61.91
2023-04-20T03:30:48.392Z,62.22
2023-04-20T03:31:48.440Z,61.98
2023-04-20T03:32:48.407Z,61.68
2023-04-20T03:33:48.363Z,62.50
2023-04-20T03:34:48.343Z,62.40
2023-04-20T03:35:48.350Z,62.29
2023-04-20T03:36:48.329Z,62.50
2023-04-20T03:37:48.319Z,62.19
2023-04-20T03:38:53.318Z,62.50
2023-04-20T03:39:48.294Z,62.16
2023-04-20T03:40:48.277Z,62.29
2023-04-20T03:41:48.273Z,61.96
2023-04-20T03:42:48.286Z,61.98
2023-04-20T03:43:48.245Z,62.71
2023-04-20T03:44:48.234Z,62.06
2023-04-20T03:45:48.274Z,61.85
2023-04-20T03:46:48.224Z,61.98
2023-04-20T03:47:48.285Z,61.85
2023-04-20T03:48:48.188Z,61.96
2023-04-20T03:49:53.194Z,61.96
2023-04-20T03:50:48.166Z,61.75
2023-04-20T03:51:48.330Z,62.16
2023-04-20T03:52:48.146Z,62.06
2023-04-20T03:53:48.132Z,62.06
2023-04-20T03:54:48.118Z,61.96
2023-04-20T03:55:48.122Z,62.16
2023-04-20T03:56:48.101Z,62.03
2023-04-20T03:57:48.109Z,61.65
2023-04-20T03:58:48.111Z,61.75
2023-04-20T03:59:48.081Z,61.65
2023-04-20T04:00:53.077Z,61.85
2023-04-20T04:01:48.052Z,62.16
2023-04-20T04:02:48.180Z,62.16
2023-04-20T04:03:48.241Z,61.65
2023-04-20T04:04:48.064Z,61.44
2023-04-20T04:05:47.996Z,61.65
2023-04-20T04:06:47.985Z,61.44
2023-04-20T04:07:48.009Z,61.44
2023-04-20T04:08:47.963Z,61.54
2023-04-20T04:09:47.960Z,61.44
2023-04-20T04:10:47.941Z,61.75
2023-04-20T04:11:52.962Z,61.88
2023-04-20T04:12:47.936Z,62.06
2023-04-20T04:13:47.905Z,62.06
2023-04-20T04:14:47.919Z,61.88
2023-04-20T04:15:47.893Z,61.96
2023-04-20T04:16:47.894Z,61.54
2023-04-20T04:17:47.970Z,61.68
2023-04-20T04:18:47.850Z,61.96
2023-04-20T04:19:47.835Z,62.08
2023-04-20T04:20:47.828Z,62.40
2023-04-20T04:21:47.835Z,61.98
2023-04-20T04:22:52.838Z,62.40
2023-04-20T04:23:47.800Z,61.98
2023-04-20T04:24:47.788Z,62.19
2023-04-20T04:25:47.772Z,62.29
2023-04-20T04:26:47.768Z,62.08
2023-04-20T04:27:47.764Z,62.08
2023-04-20T04:28:47.738Z,61.78
2023-04-20T04:29:47.726Z,61.78
2023-04-20T04:30:47.748Z,61.85
2023-04-20T04:31:47.792Z,61.88
2023-04-20T04:32:47.722Z,62.08
2023-04-20T04:33:52.715Z,62.19
2023-04-20T04:34:47.678Z,62.40
2023-04-20T04:35:47.685Z,62.29
2023-04-20T04:36:47.664Z,62.92
2023-04-20T04:37:47.677Z,62.81
2023-04-20T04:38:47.631Z,63.22
2023-04-20T04:39:47.615Z,62.60
2023-04-20T04:40:47.620Z,62.92
2023-04-20T04:41:47.593Z,63.01
2023-04-20T04:42:47.609Z,63.64
2023-04-20T04:43:47.590Z,63.15
2023-04-20T04:44:52.583Z,62.71
2023-04-20T04:45:47.549Z,62.81
2023-04-20T04:46:47.788Z,62.71
2023-04-20T04:47:47.557Z,63.74
2023-04-20T04:48:47.530Z,64.15
2023-04-20T04:49:47.502Z,64.15
2023-04-20T04:50:47.497Z,63.97
2023-04-20T04:51:47.491Z,64.15
2023-04-20T04:52:47.496Z,63.77
2023-04-20T04:53:47.480Z,63.67
2023-04-20T04:54:47.468Z,64.07
2023-04-20T04:55:52.460Z,64.39
2023-04-20T04:56:47.446Z,64.49
2023-04-20T04:57:47.425Z,64.18
2023-04-20T04:58:47.405Z,64.49
2023-04-20T04:59:47.392Z,65.00
2023-04-20T05:00:47.394Z,64.18
2023-04-20T05:01:47.394Z,64.70
2023-04-20T05:02:47.549Z,64.49
2023-04-20T05:03:47.529Z,64.90
2023-04-20T05:04:47.426Z,64.80
2023-04-20T05:05:47.327Z,64.39
2023-04-20T05:06:52.349Z,64.59
2023-04-20T05:07:47.341Z,64.90
2023-04-20T05:08:47.305Z,64.28
2023-04-20T05:09:47.277Z,64.59
2023-04-20T05:10:47.271Z,64.80
2023-04-20T05:11:47.257Z,65.21
2023-04-20T05:12:47.280Z,65.42
2023-04-20T05:13:47.238Z,65.21
2023-04-20T05:14:47.231Z,65.42
2023-04-20T05:15:47.320Z,65.31
2023-04-20T05:16:47.327Z,65.11
2023-04-20T05:17:52.291Z,65.11
2023-04-20T05:18:47.279Z,65.21
2023-04-20T05:19:47.194Z,65.62
2023-04-20T05:20:47.158Z,65.42
2023-04-20T05:21:47.148Z,65.52
2023-04-20T05:22:47.145Z,65.21
2023-04-20T05:23:47.119Z,65.00
2023-04-20T05:24:47.118Z,65.73
2023-04-20T05:25:47.171Z,65.00
2023-04-20T05:26:47.116Z,65.42
2023-04-20T05:27:47.149Z,65.62
2023-04-20T05:28:52.087Z,65.52
2023-04-20T05:29:47.075Z,65.31
2023-04-20T05:30:47.094Z,65.00
2023-04-20T05:31:47.115Z,65.94
2023-04-20T05:32:49.324Z,65.83
2023-04-20T05:33:47.062Z,65.42
2023-04-20T05:34:47.067Z,66.04
2023-04-20T05:35:46.989Z,66.14
2023-04-20T05:36:46.982Z,66.04
2023-04-20T05:37:46.985Z,65.73
2023-04-20T05:38:46.955Z,65.62
2023-04-20T05:39:51.963Z,65.52
2023-04-20T05:40:46.941Z,65.83
2023-04-20T05:41:46.919Z,65.73
2023-04-20T05:42:46.943Z,65.73
2023-04-20T05:43:46.905Z,66.04
2023-04-20T05:44:46.890Z,66.01
2023-04-20T05:45:46.902Z,65.52
2023-04-20T05:46:46.879Z,66.14
2023-04-20T05:47:46.877Z,66.04
2023-04-20T05:48:46.849Z,65.52
2023-04-20T05:49:46.852Z,65.62
2023-04-20T05:50:51.846Z,65.39
2023-04-20T05:51:46.808Z,65.62
2023-04-20T05:52:46.818Z,65.49
2023-04-20T05:53:46.785Z,65.49
2023-04-20T05:54:46.779Z,65.28
2023-04-20T05:55:46.780Z,65.18
2023-04-20T05:56:46.753Z,65.28
2023-04-20T05:57:46.753Z,65.39
2023-04-20T05:58:46.738Z,65.28
2023-04-20T05:59:46.726Z,64.67
2023-04-20T06:00:46.710Z,65.49
2023-04-20T06:01:51.733Z,65.39
2023-04-20T06:02:46.952Z,65.49
2023-04-20T06:03:46.801Z,64.77
2023-04-20T06:04:46.874Z,65.28
2023-04-20T06:05:46.734Z,65.08
2023-04-20T06:06:46.654Z,65.15
2023-04-20T06:07:46.668Z,64.84
2023-04-20T06:08:46.639Z,65.15
2023-04-20T06:09:46.608Z,64.43
2023-04-20T06:10:46.600Z,64.50
2023-04-20T06:11:46.592Z,64.74
2023-04-20T06:12:51.611Z,64.71
2023-04-20T06:13:46.593Z,64.40
2023-04-20T06:14:46.563Z,65.02
2023-04-20T06:15:46.577Z,65.02
2023-04-20T06:16:46.536Z,63.96
2023-04-20T06:17:46.564Z,64.27
2023-04-20T06:18:46.518Z,64.09
2023-04-20T06:19:46.508Z,64.27
2023-04-20T06:20:46.488Z,64.19
2023-04-20T06:21:46.512Z,63.89
2023-04-20T06:22:46.477Z,64.99
2023-04-20T06:23:51.476Z,64.58
2023-04-20T06:24:46.443Z,63.96
2023-04-20T06:25:46.439Z,63.96
2023-04-20T06:26:46.420Z,64.44
2023-04-20T06:27:46.418Z,64.44
2023-04-20T06:28:46.396Z,64.24
2023-04-20T06:29:46.383Z,64.37
2023-04-20T06:30:46.376Z,64.27
2023-04-20T06:31:46.432Z,64.27
2023-04-20T06:32:46.415Z,64.34
2023-04-20T06:33:46.337Z,63.62
2023-04-20T06:34:51.349Z,64.65
2023-04-20T06:35:46.310Z,63.72
2023-04-20T06:36:46.307Z,64.14
2023-04-20T06:37:46.326Z,63.82
2023-04-20T06:38:46.293Z,63.59
2023-04-20T06:39:46.277Z,64.00
2023-04-20T06:40:46.264Z,64.00
2023-04-20T06:41:46.249Z,63.28
2023-04-20T06:42:46.229Z,63.69
2023-04-20T06:43:46.287Z,63.18
2023-04-20T06:44:46.212Z,62.74
2023-04-20T06:45:51.225Z,63.05
2023-04-20T06:46:46.241Z,62.74
2023-04-20T06:47:46.211Z,62.53
2023-04-20T06:48:46.179Z,62.33
2023-04-20T06:49:46.159Z,62.53
2023-04-20T06:50:46.137Z,63.79
2023-04-20T06:51:46.128Z,64.00
2023-04-20T06:52:46.154Z,64.11
2023-04-20T06:53:46.145Z,63.87
2023-04-20T06:54:46.104Z,63.97
2023-04-20T06:55:46.090Z,63.76
2023-04-20T06:56:51.094Z,63.84
2023-04-20T06:57:46.060Z,63.09
2023-04-20T06:58:46.095Z,62.58
2023-04-20T06:59:46.038Z,62.27
2023-04-20T07:00:46.040Z,61.60
2023-04-20T07:01:46.071Z,60.21
2023-04-20T07:02:46.076Z,59.38
2023-04-20T07:03:46.189Z,59.36
2023-04-20T07:04:46.028Z,58.07
2023-04-20T07:05:45.973Z,57.76
2023-04-20T07:06:45.964Z,57.66
2023-04-20T07:07:50.969Z,57.35
2023-04-20T07:08:45.952Z,57.35
2023-04-20T07:09:46.016Z,57.76
2023-04-20T07:10:45.916Z,58.40
2023-04-20T07:11:45.903Z,58.40
2023-04-20T07:12:45.898Z,58.33
2023-04-20T07:13:45.896Z,58.20
2023-04-20T07:14:45.870Z,58.44
2023-04-20T07:15:45.873Z,58.51
2023-04-20T07:16:45.908Z,57.89
2023-04-20T07:17:45.889Z,58.58
2023-04-20T07:18:50.867Z,58.07
2023-04-20T07:19:45.812Z,58.38
2023-04-20T07:20:45.817Z,58.20
2023-04-20T07:21:45.788Z,58.20
2023-04-20T07:22:45.778Z,58.28
2023-04-20T07:23:45.788Z,56.92
2023-04-20T07:24:45.759Z,56.87
2023-04-20T07:25:45.839Z,56.33
2023-04-20T07:26:45.734Z,56.12
2023-04-20T07:27:45.721Z,55.71
2023-04-20T07:28:45.720Z,54.97
2023-04-20T07:29:50.721Z,55.08
2023-04-20T07:30:45.700Z,53.92
2023-04-20T07:31:45.708Z,53.83
2023-04-20T07:32:45.714Z,53.85
2023-04-20T07:33:45.661Z,55.28
2023-04-20T07:34:45.638Z,55.62
2023-04-20T07:35:45.632Z,55.94
2023-04-20T07:36:45.622Z,56.05
2023-04-20T07:37:45.610Z,56.05
2023-04-20T07:38:45.626Z,56.46
2023-04-20T07:39:45.591Z,55.92
2023-04-20T07:40:50.625Z,55.62
2023-04-20T07:41:45.566Z,56.51
2023-04-20T07:42:45.558Z,56.48
2023-04-20T07:43:45.556Z,56.17
2023-04-20T07:44:45.533Z,56.86
2023-04-20T07:45:45.546Z,55.02
2023-04-20T07:46:45.512Z,55.33
2023-04-20T07:47:45.513Z,54.90
2023-04-20T07:48:45.512Z,54.69
2023-04-20T07:49:45.476Z,53.98
2023-04-20T07:50:45.624Z,53.34
2023-04-20T07:51:50.475Z,53.24
2023-04-20T07:52:45.442Z,53.24
2023-04-20T07:53:45.440Z,53.77
2023-04-20T07:54:45.447Z,53.36
2023-04-20T07:55:45.696Z,53.36
2023-04-20T07:56:45.484Z,54.44
2023-04-20T07:57:45.387Z,54.05
2023-04-20T07:58:45.387Z,54.36
2023-04-20T07:59:45.364Z,55.51
2023-04-20T08:00:45.361Z,55.71
2023-04-20T08:01:45.339Z,56.02
2023-04-20T08:02:50.527Z,55.30
2023-04-20T08:03:45.516Z,55.69
2023-04-20T08:04:45.578Z,55.46
2023-04-20T08:05:45.386Z,55.15
2023-04-20T08:06:45.293Z,54.74
2023-04-20T08:07:45.294Z,55.15
2023-04-20T08:08:45.286Z,54.95
2023-04-20T08:09:45.247Z,55.15
2023-04-20T08:10:45.241Z,54.82
2023-04-20T08:11:45.226Z,54.11
2023-04-20T08:12:45.421Z,53.24
2023-04-20T08:13:50.237Z,52.29
2023-04-20T08:14:45.190Z,50.62
2023-04-20T08:15:45.235Z,50.90
2023-04-20T08:16:45.169Z,51.23
2023-04-20T08:17:45.185Z,51.00
2023-04-20T08:18:45.161Z,50.67
2023-04-20T08:19:46.122Z,50.16
2023-04-20T08:20:45.123Z,49.55
2023-04-20T08:21:45.110Z,51.33
2023-04-20T08:22:45.102Z,50.92
2023-04-20T08:23:45.102Z,52.78
2023-04-20T08:24:50.127Z,51.61
2023-04-20T08:25:45.066Z,50.85
2023-04-20T08:26:45.054Z,49.71
2023-04-20T08:27:45.042Z,49.05
2023-04-20T08:28:45.129Z,47.99
2023-04-20T08:29:45.027Z,46.83
2023-04-20T08:30:45.010Z,45.57
2023-04-20T08:31:45.097Z,45.17
2023-04-20T08:32:45.001Z,45.78
2023-04-20T08:33:44.994Z,46.22
2023-04-20T08:34:45.056Z,47.11
2023-04-20T08:35:49.975Z,46.30
2023-04-20T08:36:44.946Z,45.47
2023-04-20T08:37:44.937Z,45.04
2023-04-20T08:38:44.933Z,44.54
2023-04-20T08:39:44.905Z,45.65
2023-04-20T08:40:44.917Z,46.43
2023-04-20T08:41:44.889Z,46.67
2023-04-20T08:42:44.871Z,47.51
2023-04-20T08:43:44.873Z,48.65
2023-04-20T08:44:45.019Z,48.55
2023-04-20T08:45:44.840Z,49.48
2023-04-20T08:46:49.965Z,50.12
2023-04-20T08:47:44.835Z,50.24
2023-04-20T08:48:44.856Z,50.87
2023-04-20T08:49:44.797Z,50.95
2023-04-20T08:50:44.781Z,51.16
2023-04-20T08:51:44.780Z,50.75
2023-04-20T08:52:44.789Z,49.81
2023-04-20T08:53:44.759Z,49.69
2023-04-20T08:55:44.765Z,49.05
2023-04-20T08:56:44.712Z,49.46
2023-04-20T08:57:49.727Z,49.79
2023-04-20T08:58:44.707Z,49.81
2023-04-20T08:59:44.678Z,50.34
2023-04-20T09:00:44.806Z,50.62
2023-04-20T09:01:44.687Z,50.93
2023-04-20T09:02:44.795Z,49.63
2023-04-20T09:03:44.740Z,49.73
2023-04-20T09:04:44.751Z,51.28
2023-04-20T09:05:44.646Z,51.41
2023-04-20T09:06:44.619Z,52.12
2023-04-20T09:07:44.582Z,51.94
2023-04-20T09:08:49.602Z,52.58
2023-04-20T09:09:44.561Z,51.97
2023-04-20T09:10:44.546Z,51.84
2023-04-20T09:11:44.542Z,52.78
2023-04-20T09:12:44.541Z,53.29
2023-04-20T09:13:44.525Z,53.09
2023-04-20T09:14:44.508Z,53.50
2023-04-20T09:15:44.504Z,53.57
2023-04-20T09:16:44.526Z,52.45
2023-04-20T09:17:44.499Z,51.92
2023-04-20T09:18:44.505Z,52.55
2023-04-20T09:19:49.480Z,52.43
2023-04-20T09:20:44.437Z,52.12
2023-04-20T09:21:44.424Z,51.81
2023-04-20T09:22:44.409Z,51.31
2023-04-20T09:23:44.413Z,51.72
2023-04-20T09:24:44.420Z,51.10
2023-04-20T09:25:44.377Z,52.12
2023-04-20T09:26:44.362Z,51.94
2023-04-20T09:27:44.358Z,52.22
2023-04-20T09:28:44.364Z,51.94
2023-04-20T09:29:44.352Z,52.55
2023-04-20T09:30:49.453Z,52.04
2023-04-20T09:31:44.429Z,52.15
2023-04-20T09:32:44.415Z,52.30
2023-04-20T09:33:44.306Z,51.69
2023-04-20T09:34:44.273Z,52.00
2023-04-20T09:35:44.261Z,52.02
2023-04-20T09:36:44.282Z,52.94
2023-04-20T09:37:44.242Z,53.67
2023-04-20T09:38:44.246Z,53.06
2023-04-20T09:39:44.218Z,54.21
2023-04-20T09:40:44.212Z,54.00
2023-04-20T09:41:49.217Z,54.31
2023-04-20T09:42:44.224Z,54.85
2023-04-20T09:43:44.173Z,55.89
2023-04-20T09:44:44.170Z,55.07
2023-04-20T09:45:44.181Z,55.82
2023-04-20T09:46:44.134Z,55.91
2023-04-20T09:47:44.209Z,55.61
2023-04-20T09:48:44.166Z,56.30
2023-04-20T09:49:44.125Z,55.28
2023-04-20T09:50:49.759Z,55.26
2023-04-20T09:51:44.092Z,54.92
2023-04-20T09:52:49.095Z,53.98
2023-04-20T09:53:44.095Z,53.27
2023-04-20T09:54:44.055Z,53.47
2023-04-20T09:55:44.040Z,53.37
2023-04-20T09:56:44.023Z,53.44
2023-04-20T09:57:44.012Z,53.24
2023-04-20T09:58:44.053Z,53.67
2023-04-20T09:59:44.011Z,53.67
2023-04-20T10:00:43.982Z,53.06
2023-04-20T10:01:44.142Z,54.72
2023-04-20T10:02:44.048Z,54.74
2023-04-20T10:03:49.121Z,54.87
2023-04-20T10:04:44.047Z,56.10
2023-04-20T10:05:43.958Z,55.99
2023-04-20T10:06:43.908Z,55.69
2023-04-20T10:07:43.901Z,56.10
2023-04-20T10:08:43.900Z,56.30
2023-04-20T10:09:43.875Z,55.87
2023-04-20T10:10:43.874Z,54.92
2023-04-20T10:11:53.109Z,54.13
2023-04-20T10:12:44.843Z,53.96
2023-04-20T10:13:43.843Z,53.96
2023-04-20T10:14:48.839Z,53.93
2023-04-20T10:15:43.840Z,53.59
2023-04-20T10:16:43.850Z,53.09
2023-04-20T10:17:43.930Z,52.28
2023-04-20T10:18:43.896Z,52.48
2023-04-20T10:19:43.793Z,52.28
2023-04-20T10:20:43.756Z,52.28
2023-04-20T10:21:43.738Z,52.96
2023-04-20T10:22:43.727Z,52.08
2023-04-20T10:23:43.757Z,51.97
2023-04-20T10:24:43.710Z,51.97
2023-04-20T10:25:48.719Z,53.63
2023-04-20T10:26:43.695Z,53.93
2023-04-20T10:27:43.685Z,53.85
2023-04-20T10:28:43.668Z,54.26
2023-04-20T10:29:43.652Z,53.96
2023-04-20T10:30:43.702Z,54.77
2023-04-20T10:31:43.625Z,55.89
2023-04-20T10:32:43.669Z,55.81
2023-04-20T10:33:43.610Z,55.81
2023-04-20T10:34:43.592Z,56.20
2023-04-20T10:35:45.779Z,55.76
2023-04-20T10:36:48.639Z,55.15
2023-04-20T10:37:43.556Z,54.90
2023-04-20T10:38:43.559Z,55.18
2023-04-20T10:39:43.533Z,54.54
2023-04-20T10:40:43.521Z,53.70
2023-04-20T10:41:43.517Z,53.70
2023-04-20T10:42:43.540Z,54.77
2023-04-20T10:43:43.816Z,54.79
2023-04-20T10:44:43.476Z,54.77
2023-04-20T10:45:43.466Z,55.63
2023-04-20T10:46:43.488Z,56.65
2023-04-20T10:47:48.509Z,56.24
2023-04-20T10:48:43.493Z,56.57
2023-04-20T10:49:43.418Z,57.31
2023-04-20T10:50:43.408Z,57.42
2023-04-20T10:51:43.457Z,57.21
2023-04-20T10:52:43.398Z,57.04
2023-04-20T10:53:43.402Z,56.70
2023-04-20T10:54:43.396Z,57.04
2023-04-20T10:55:43.351Z,56.12
2023-04-20T10:56:43.342Z,56.63
2023-04-20T10:57:43.327Z,56.73
2023-04-20T10:58:48.351Z,56.24
2023-04-20T10:59:43.302Z,57.26
2023-04-20T11:00:43.333Z,57.19
2023-04-20T11:01:43.335Z,57.70
2023-04-20T11:02:43.328Z,57.70
2023-04-20T11:03:43.366Z,57.87
2023-04-20T11:04:43.296Z,57.26
2023-04-20T11:05:43.236Z,57.37
2023-04-20T11:06:43.256Z,57.67
2023-04-20T11:07:43.236Z,57.57
2023-04-20T11:08:43.289Z,57.37
2023-04-20T11:09:48.227Z,57.87
2023-04-20T11:10:43.183Z,57.17
2023-04-20T11:11:43.170Z,57.14
2023-04-20T11:12:43.198Z,56.70
2023-04-20T11:13:43.164Z,56.81
2023-04-20T11:14:43.155Z,57.11
2023-04-20T11:15:43.126Z,56.70
2023-04-20T11:16:50.715Z,57.44
2023-04-20T11:17:43.135Z,57.14
2023-04-20T11:18:43.122Z,57.24
2023-04-20T11:19:43.093Z,57.37
2023-04-20T11:20:48.092Z,58.08
2023-04-20T11:21:43.055Z,58.72
2023-04-20T11:22:43.057Z,57.80
2023-04-20T11:23:43.071Z,57.17
2023-04-20T11:24:43.075Z,57.26
2023-04-20T11:25:43.011Z,57.47
2023-04-20T11:26:43.007Z,56.96
2023-04-20T11:27:42.997Z,56.76
2023-04-20T11:28:42.981Z,55.33
2023-04-20T11:29:42.974Z,55.71
2023-04-20T11:30:42.993Z,55.20
2023-04-20T11:31:48.026Z,55.13
2023-04-20T11:32:43.404Z,55.33
2023-04-20T11:33:42.933Z,54.85
2023-04-20T11:34:43.490Z,56.07
2023-04-20T11:35:42.900Z,55.43
2023-04-20T11:36:42.898Z,57.17
2023-04-20T11:37:42.925Z,58.11
2023-04-20T11:38:42.868Z,57.87
2023-04-20T11:39:42.940Z,59.74
2023-04-20T11:40:42.847Z,60.12
2023-04-20T11:41:42.834Z,57.90
2023-04-20T11:42:47.851Z,56.65
2023-04-20T11:43:42.826Z,57.67
2023-04-20T11:44:42.810Z,56.45
2023-04-20T11:45:42.817Z,57.19
2023-04-20T11:46:42.779Z,56.24
2023-04-20T11:47:42.797Z,58.01
2023-04-20T11:48:42.759Z,57.78
2023-04-20T11:49:42.779Z,58.92
2023-04-20T11:50:42.827Z,58.54
2023-04-20T11:51:42.724Z,59.36
2023-04-20T11:52:42.730Z,61.05
2023-04-20T11:53:47.723Z,66.28
2023-04-20T11:54:42.698Z,65.67
2023-04-20T11:55:42.716Z,63.79
2023-04-20T11:56:42.766Z,61.98
2023-04-20T11:57:42.650Z,64.43
2023-04-20T11:58:42.641Z,65.77
2023-04-20T11:59:42.637Z,67.23
2023-04-20T12:00:42.626Z,66.38
2023-04-20T12:01:42.666Z,65.46
2023-04-20T12:02:42.713Z,65.63
2023-04-20T12:03:43.881Z,66.86
2023-04-20T12:04:47.873Z,65.19
2023-04-20T12:05:42.632Z,63.73
2023-04-20T12:06:42.562Z,66.90
2023-04-20T12:07:42.573Z,64.62
2023-04-20T12:08:42.525Z,63.09
2023-04-20T12:09:42.534Z,61.32
2023-04-20T12:10:42.504Z,60.89
2023-04-20T12:11:42.586Z,61.50
2023-04-20T12:12:42.519Z,62.18
2023-04-20T12:13:42.519Z,62.26
2023-04-20T12:14:42.469Z,62.23
2023-04-20T12:15:47.522Z,62.43
2023-04-20T12:16:42.440Z,57.75
2023-04-20T12:17:42.451Z,59.07
2023-04-20T12:18:42.417Z,59.93
2023-04-20T12:19:42.459Z,56.21
2023-04-20T12:20:42.394Z,54.82
2023-04-20T12:21:42.380Z,55.94
2023-04-20T12:22:42.377Z,55.05
2023-04-20T12:23:42.360Z,52.96
2023-04-20T12:24:42.359Z,53.98
2023-04-20T12:25:42.368Z,54.92
2023-04-20T12:26:47.383Z,55.26
2023-04-20T12:27:42.316Z,56.50
2023-04-20T12:28:42.312Z,56.02
2023-04-20T12:29:42.302Z,57.55
2023-04-20T12:30:42.277Z,57.68
2023-04-20T12:31:42.375Z,60.05
2023-04-20T12:32:42.312Z,64.92
2023-04-20T12:33:42.245Z,67.74
2023-04-20T12:34:42.250Z,71.49
2023-04-20T12:35:42.225Z,74.02
2023-04-20T12:36:42.217Z,73.27
2023-04-20T12:37:47.299Z,76.07
2023-04-20T12:38:42.187Z,74.67
2023-04-20T12:39:42.181Z,76.10
2023-04-20T12:40:42.165Z,76.31
2023-04-20T12:41:42.150Z,77.65
2023-04-20T12:42:42.163Z,76.42
2023-04-20T12:43:42.177Z,78.02
2023-04-20T12:44:42.140Z,74.63
2023-04-20T12:45:42.108Z,75.45
2023-04-20T12:46:42.155Z,72.75
2023-04-20T12:47:42.112Z,73.16
2023-04-20T12:48:47.110Z,70.80
2023-04-20T12:49:42.112Z,70.26
2023-04-20T12:50:42.051Z,71.08
2023-04-20T12:51:42.050Z,71.08
2023-04-20T12:52:42.048Z,71.04
2023-04-20T12:53:42.057Z,72.27